createdAt,value
2023-01-09T00:00:58.674Z,100.00
2023-01-09T00:03:25.311Z,100.00
2023-01-09T00:05:52.821Z,100.00
2023-01-09T00:08:19.557Z,100.00
2023-01-09T00:13:18.426Z,100.00
2023-01-09T00:15:45.266Z,100.00
2023-01-09T00:18:11.867Z,100.00
2023-01-09T00:20:38.532Z,100.00
2023-01-09T00:23:05.291Z,99.92
2023-01-09T00:25:32.009Z,99.44
2023-01-09T00:27:58.562Z,98.39
2023-01-09T00:30:25.912Z,99.15
2023-01-09T00:32:54.476Z,100.00
2023-01-09T00:35:23.435Z,100.00
2023-01-09T00:37:49.985Z,99.58
2023-01-09T00:40:17.756Z,100.00
2023-01-09T00:42:51.135Z,100.00
2023-01-09T00:45:28.695Z,100.00
2023-01-09T00:47:59.677Z,100.00
2023-01-09T00:50:30.967Z,99.74
2023-01-09T00:53:00.980Z,99.42
2023-01-09T00:55:27.816Z,99.55
2023-01-09T00:57:56.000Z,99.92
2023-01-09T01:00:22.838Z,100.00
2023-01-09T01:02:49.516Z,100.00
2023-01-09T01:05:35.070Z,100.00
2023-01-09T01:08:01.647Z,100.00
2023-01-09T01:10:28.268Z,100.00
2023-01-09T01:15:29.617Z,100.00
2023-01-09T01:20:31.505Z,98.88
2023-01-09T01:22:58.160Z,100.00
2023-01-09T01:25:25.077Z,99.45
2023-01-09T01:27:51.832Z,98.78
2023-01-09T01:30:19.445Z,98.95
2023-01-09T01:32:46.540Z,97.92
2023-01-09T01:35:13.842Z,97.72
2023-01-09T01:37:40.781Z,99.48
2023-01-09T01:40:09.362Z,97.40
2023-01-09T01:42:35.953Z,97.72
2023-01-09T01:45:09.719Z,98.98
2023-01-09T01:50:46.231Z,99.08
2023-01-09T01:56:06.332Z,97.61
2023-01-09T01:58:37.268Z,97.89
2023-01-09T02:01:03.974Z,96.97
2023-01-09T02:06:05.041Z,97.65
2023-01-09T02:11:23.405Z,97.61
2023-01-09T02:13:56.264Z,98.46
2023-01-09T02:16:52.050Z,98.45
2023-01-09T02:19:54.380Z,99.00
2023-01-09T02:22:47.024Z,99.61
2023-01-09T02:25:38.373Z,99.71
2023-01-09T02:28:36.995Z,97.41
2023-01-09T02:31:39.111Z,97.42
2023-01-09T02:34:17.730Z,97.66
2023-01-09T02:37:07.371Z,97.39
2023-01-09T02:39:47.291Z,96.67
2023-01-09T02:42:25.547Z,96.72
2023-01-09T02:44:58.249Z,95.62
2023-01-09T02:47:30.869Z,95.76
2023-01-09T02:50:08.892Z,95.92
2023-01-09T02:52:41.527Z,96.50
2023-01-09T03:08:40.287Z,96.10
2023-01-09T03:11:09.172Z,95.67
2023-01-09T03:13:50.612Z,95.28
2023-01-09T03:16:35.144Z,95.50
2023-01-09T03:19:04.228Z,95.19
2023-01-09T03:21:33.163Z,94.05
2023-01-09T03:24:01.960Z,94.46
2023-01-09T03:29:03.236Z,94.55
2023-01-09T03:31:30.016Z,96.74
2023-01-09T03:33:56.853Z,96.29
2023-01-09T03:36:24.566Z,98.04
2023-01-09T03:38:51.640Z,97.54
2023-01-09T03:41:19.813Z,97.60
2023-01-09T03:43:48.644Z,97.57
2023-01-09T03:46:16.723Z,96.83
2023-01-09T03:48:43.837Z,96.33
2023-01-09T03:51:10.418Z,96.65
2023-01-09T03:53:36.958Z,97.29
2023-01-09T03:56:03.952Z,97.81
2023-01-09T03:58:30.733Z,98.73
2023-01-09T04:01:00.550Z,99.71
2023-01-09T04:03:27.569Z,99.21
2023-01-09T04:05:54.682Z,99.36
2023-01-09T04:08:21.658Z,98.80
2023-01-09T04:15:54.005Z,100.00
2023-01-09T04:18:20.638Z,100.00
2023-01-09T04:20:48.366Z,100.00
2023-01-09T04:23:15.064Z,100.00
2023-01-09T04:25:41.650Z,100.00
2023-01-09T04:28:08.264Z,99.34
2023-01-09T04:30:34.970Z,99.49
2023-01-09T04:33:01.499Z,97.17
2023-01-09T04:35:28.110Z,98.39
2023-01-09T04:37:54.710Z,98.92
2023-01-09T04:40:21.286Z,95.42
2023-01-09T04:42:47.876Z,95.22
2023-01-09T04:45:15.771Z,93.19
2023-01-09T04:47:42.380Z,94.43
2023-01-09T04:50:10.576Z,95.21
2023-01-09T04:52:38.921Z,93.79
2023-01-09T04:55:07.610Z,92.03
2023-01-09T04:57:35.116Z,93.49
2023-01-09T05:00:02.117Z,89.77
2023-01-09T05:02:28.690Z,90.36
2023-01-09T05:04:55.301Z,90.90
2023-01-09T05:07:21.840Z,88.60
2023-01-09T05:09:48.463Z,90.03
2023-01-09T05:12:15.007Z,88.38
2023-01-09T05:14:41.552Z,90.01
2023-01-09T05:17:08.114Z,90.20
2023-01-09T05:19:34.766Z,89.39
2023-01-09T05:22:01.362Z,90.04
2023-01-09T05:24:27.982Z,87.76
2023-01-09T05:26:54.543Z,89.11
2023-01-09T05:29:21.161Z,87.03
2023-01-09T05:34:20.838Z,88.51
2023-01-09T05:39:25.127Z,88.47
2023-01-09T05:41:51.724Z,87.93
2023-01-09T05:44:18.510Z,86.55
2023-01-09T05:46:45.088Z,87.17
2023-01-09T05:49:11.822Z,85.63
2023-01-09T05:51:38.499Z,86.23
2023-01-09T05:54:07.579Z,85.79
2023-01-09T05:56:34.170Z,85.73
2023-01-09T06:01:38.399Z,85.48
2023-01-09T06:04:05.057Z,83.69
2023-01-09T06:06:31.790Z,84.41
2023-01-09T06:08:58.371Z,82.92
2023-01-09T06:11:24.975Z,83.64
2023-01-09T06:13:51.550Z,84.03
2023-01-09T06:16:18.497Z,84.05
2023-01-09T06:18:45.170Z,82.49
2023-01-09T06:21:11.809Z,83.82
2023-01-09T06:23:38.414Z,82.82
2023-01-09T06:26:05.020Z,81.41
2023-01-09T06:28:31.539Z,81.93
2023-01-09T06:30:58.147Z,82.90
2023-01-09T06:33:24.732Z,81.86
2023-01-09T06:35:51.463Z,82.57
2023-01-09T06:38:18.139Z,81.88
2023-01-09T06:40:44.714Z,83.25
2023-01-09T06:43:11.269Z,82.31
2023-01-09T06:45:37.845Z,81.41
2023-01-09T06:48:04.595Z,79.92
2023-01-09T06:50:31.203Z,82.15
2023-01-09T06:52:57.952Z,81.79
2023-01-09T06:55:26.543Z,82.44
2023-01-09T06:57:53.508Z,82.17
2023-01-09T07:00:20.599Z,81.46
2023-01-09T07:02:47.241Z,82.56
2023-01-09T07:05:13.898Z,84.29
2023-01-09T07:07:41.340Z,81.79
2023-01-09T07:10:09.218Z,82.49
2023-01-09T07:12:35.916Z,84.80
2023-01-09T07:17:33.780Z,85.09
2023-01-09T07:20:00.927Z,84.02
2023-01-09T07:22:27.530Z,83.89
2023-01-09T07:24:54.108Z,84.28
2023-01-09T07:27:21.622Z,84.70
2023-01-09T07:29:48.236Z,83.60
2023-01-09T07:32:14.813Z,82.68
2023-01-09T07:34:41.383Z,81.69
2023-01-09T07:37:07.962Z,81.56
2023-01-09T07:39:34.614Z,80.96
2023-01-09T07:42:01.228Z,81.30
2023-01-09T07:44:27.853Z,82.30
2023-01-09T07:46:54.419Z,82.56
2023-01-09T07:49:20.975Z,81.67
2023-01-09T07:51:48.464Z,82.96
2023-01-09T07:54:16.182Z,82.79
2023-01-09T07:56:42.846Z,83.21
2023-01-09T07:59:09.666Z,82.96
2023-01-09T08:01:36.360Z,82.12
2023-01-09T08:04:03.104Z,83.02
2023-01-09T08:06:30.203Z,82.67
2023-01-09T08:08:57.877Z,83.36
2023-01-09T08:11:24.933Z,83.69
2023-01-09T08:13:51.990Z,82.22
2023-01-09T08:16:18.787Z,82.36
2023-01-09T08:18:45.371Z,83.00
2023-01-09T08:21:11.955Z,82.81
2023-01-09T08:23:38.656Z,80.90
2023-01-09T08:26:05.324Z,79.74
2023-01-09T08:28:32.440Z,80.37
2023-01-09T08:30:59.218Z,79.00
2023-01-09T08:33:26.811Z,78.14
2023-01-09T08:35:54.318Z,78.07
2023-01-09T08:38:22.479Z,76.96
2023-01-09T08:40:49.159Z,77.57
2023-01-09T08:43:34.386Z,77.48
2023-01-09T08:46:21.286Z,79.11
2023-01-09T08:48:48.508Z,78.28
2023-01-09T08:51:15.385Z,76.87
2023-01-09T08:53:42.083Z,75.83
2023-01-09T08:56:08.713Z,76.32
2023-01-09T08:58:35.276Z,75.23
2023-01-09T09:01:05.616Z,74.87
2023-01-09T09:03:32.194Z,75.29
2023-01-09T09:05:58.824Z,74.84
2023-01-09T09:08:25.487Z,73.67
2023-01-09T09:10:52.033Z,74.94
2023-01-09T09:13:18.636Z,74.63
2023-01-09T09:15:45.320Z,74.33
2023-01-09T09:18:12.062Z,74.42
2023-01-09T09:20:39.283Z,73.87
2023-01-09T09:23:08.318Z,73.32
2023-01-09T09:28:07.602Z,72.04
2023-01-09T09:30:34.890Z,73.21
2023-01-09T09:33:04.486Z,71.89
2023-01-09T09:35:33.843Z,72.30
2023-01-09T09:38:04.993Z,69.69
2023-01-09T09:41:30.471Z,69.24
2023-01-09T09:44:52.614Z,68.93
2023-01-09T09:47:35.366Z,67.95
2023-01-09T09:50:31.188Z,67.33
2023-01-09T09:53:19.513Z,68.40
2023-01-09T09:55:49.675Z,68.18
2023-01-09T09:58:23.386Z,69.46
2023-01-09T10:03:34.360Z,69.64
2023-01-09T10:06:05.333Z,69.77
2023-01-09T10:08:46.791Z,69.38
2023-01-09T10:11:20.316Z,69.96
2023-01-09T10:14:06.417Z,70.47
2023-01-09T10:16:58.944Z,68.69
2023-01-09T10:19:28.199Z,68.92
2023-01-09T10:22:17.143Z,70.57
2023-01-09T10:25:00.774Z,68.46
2023-01-09T10:27:56.064Z,69.40
2023-01-09T10:30:28.094Z,69.95
2023-01-09T10:33:13.539Z,68.39
2023-01-09T10:36:00.298Z,69.75
2023-01-09T10:38:35.656Z,69.56
2023-01-09T10:41:14.040Z,69.07
2023-01-09T10:43:53.604Z,69.79
2023-01-09T10:46:28.991Z,69.88
2023-01-09T10:49:00.847Z,70.59
2023-01-09T10:51:39.836Z,69.71
2023-01-09T10:57:13.010Z,69.16
2023-01-09T10:59:41.818Z,69.92
2023-01-09T11:04:58.216Z,69.22
2023-01-09T11:07:31.908Z,69.16
2023-01-09T11:10:17.554Z,68.84
2023-01-09T11:15:32.028Z,68.45
2023-01-09T11:18:17.754Z,68.21
2023-01-09T11:20:44.759Z,68.00
2023-01-09T11:23:31.307Z,68.17
2023-01-09T11:26:00.975Z,68.95
2023-01-09T11:28:28.425Z,69.19
2023-01-09T11:31:01.005Z,69.55
2023-01-09T11:33:37.413Z,68.86
2023-01-09T11:36:10.879Z,68.38
2023-01-09T11:38:55.627Z,69.42
2023-01-09T11:41:34.600Z,69.22
2023-01-09T11:44:04.281Z,69.84
2023-01-09T11:46:34.585Z,68.51
2023-01-09T11:49:03.357Z,69.33
2023-01-09T11:51:32.605Z,68.76
2023-01-09T11:54:14.477Z,69.19
2023-01-09T11:56:41.666Z,69.26
2023-01-09T11:59:13.875Z,69.52
2023-01-09T12:02:15.276Z,70.32
2023-01-09T12:05:12.734Z,67.66
2023-01-09T12:07:45.436Z,68.69
2023-01-09T12:10:37.257Z,68.87
2023-01-09T12:13:22.491Z,68.70
2023-01-09T12:16:14.620Z,68.14
2023-01-09T12:18:56.404Z,67.13
2023-01-09T12:21:40.863Z,67.16
2023-01-09T12:27:30.649Z,66.40
2023-01-09T12:30:26.324Z,66.91
2023-01-09T12:33:07.920Z,67.99
2023-01-09T12:35:59.497Z,67.92
2023-01-09T12:38:41.590Z,69.50
2023-01-09T12:41:23.159Z,68.34
2023-01-09T12:44:34.980Z,69.49
2023-01-09T12:47:15.932Z,71.62
2023-01-09T12:50:09.845Z,73.81
2023-01-09T12:52:44.216Z,74.78
2023-01-09T12:55:18.852Z,77.44
2023-01-09T12:57:50.266Z,81.70
2023-01-09T13:00:23.538Z,82.91
2023-01-09T13:03:12.996Z,85.24
2023-01-09T13:05:50.186Z,85.81
2023-01-09T13:08:36.419Z,85.17
2023-01-09T13:11:27.388Z,84.91
2023-01-09T13:14:12.627Z,84.77
2023-01-09T13:16:46.146Z,83.61
2023-01-09T13:19:23.623Z,84.12
2023-01-09T13:21:51.242Z,87.85
2023-01-09T13:24:29.816Z,86.85
2023-01-09T13:27:05.527Z,86.02
2023-01-09T13:29:38.134Z,89.39
2023-01-09T13:32:30.779Z,88.93
2023-01-09T13:34:57.994Z,87.50
2023-01-09T13:37:31.235Z,87.03
2023-01-09T13:40:00.853Z,88.51
2023-01-09T13:42:46.099Z,88.09
2023-01-09T13:45:18.314Z,89.88
2023-01-09T13:47:45.259Z,89.14
2023-01-09T13:50:11.811Z,89.24
2023-01-09T13:52:39.312Z,91.56
2023-01-09T13:55:11.806Z,91.35
2023-01-09T13:57:43.105Z,91.13
2023-01-09T14:00:12.339Z,92.72
2023-01-09T14:02:38.878Z,89.77
2023-01-09T14:05:24.934Z,92.46
2023-01-09T14:08:11.937Z,93.03
2023-01-09T14:10:48.229Z,89.88
2023-01-09T14:13:18.800Z,92.11
2023-01-09T14:15:47.260Z,93.69
2023-01-09T14:18:18.321Z,94.42
2023-01-09T14:21:00.600Z,93.10
2023-01-09T14:23:45.936Z,96.70
2023-01-09T14:26:22.858Z,97.82
2023-01-09T14:28:49.778Z,97.12
2023-01-09T14:31:31.369Z,97.09
2023-01-09T14:34:30.963Z,95.03
2023-01-09T14:37:01.620Z,96.14
2023-01-09T14:39:32.014Z,95.62
2023-01-09T14:42:06.385Z,95.50
2023-01-09T14:44:50.903Z,96.06
2023-01-09T14:47:36.209Z,93.66
2023-01-09T14:50:17.863Z,90.34
2023-01-09T14:53:13.305Z,94.63
2023-01-09T14:56:00.771Z,90.68
2023-01-09T14:58:28.444Z,93.03
2023-01-09T15:01:12.611Z,94.21
2023-01-09T15:03:46.334Z,93.98
2023-01-09T15:06:25.161Z,94.65
2023-01-09T15:09:26.039Z,94.51
2023-01-09T15:11:57.273Z,94.53
2023-01-09T15:17:22.913Z,93.96
2023-01-09T15:19:49.823Z,92.99
2023-01-09T15:22:28.555Z,93.39
2023-01-09T15:24:55.361Z,92.34
2023-01-09T15:27:23.463Z,88.81
2023-01-09T15:29:51.052Z,85.06
2023-01-09T15:32:29.985Z,84.99
2023-01-09T15:34:57.900Z,83.96
2023-01-09T15:37:39.054Z,83.48
2023-01-09T15:40:08.125Z,82.84
2023-01-09T15:42:57.494Z,81.39
2023-01-09T15:45:37.335Z,79.40
2023-01-09T15:48:22.175Z,83.10
2023-01-09T15:50:53.203Z,82.28
2023-01-09T15:56:24.116Z,86.73
2023-01-09T15:58:52.022Z,91.38
2023-01-09T16:01:25.689Z,95.55
2023-01-09T16:03:56.285Z,97.54
2023-01-09T16:11:55.539Z,98.85
2023-01-09T16:14:33.170Z,99.00
2023-01-09T16:17:03.773Z,95.90
2023-01-09T16:19:33.354Z,96.24
2023-01-09T16:22:03.012Z,95.82
2023-01-09T16:24:41.849Z,95.39
2023-01-09T16:27:30.520Z,95.67
2023-01-09T16:30:27.487Z,95.27
2023-01-09T16:32:54.149Z,96.36
2023-01-09T16:35:24.975Z,96.22
2023-01-09T16:37:51.569Z,96.95
2023-01-09T16:40:18.095Z,97.57
2023-01-09T16:43:00.511Z,98.23
2023-01-09T16:48:20.760Z,97.74
2023-01-09T16:50:47.373Z,97.56
2023-01-09T16:53:19.464Z,98.95
2023-01-09T16:55:46.761Z,98.95
2023-01-09T16:58:26.698Z,98.39
2023-01-09T17:00:53.459Z,98.78
2023-01-09T17:03:20.567Z,96.53
2023-01-09T17:05:55.741Z,96.12
2023-01-09T17:08:25.435Z,95.63
2023-01-09T17:10:53.492Z,95.61
2023-01-09T17:18:31.933Z,94.60
2023-01-09T17:20:59.477Z,93.34
2023-01-09T17:23:26.186Z,93.08
2023-01-09T17:26:16.829Z,92.91
2023-01-09T17:28:49.285Z,93.02
2023-01-09T17:31:15.961Z,91.34
2023-01-09T17:33:42.897Z,90.08
2023-01-09T17:36:32.485Z,89.79
2023-01-09T17:38:59.758Z,90.02
2023-01-09T17:41:29.450Z,89.25
2023-01-09T17:43:57.541Z,88.89
2023-01-09T17:46:32.596Z,88.99
2023-01-09T17:49:00.863Z,89.79
2023-01-09T17:51:28.258Z,88.61
2023-01-09T17:53:55.711Z,90.17
2023-01-09T17:56:25.636Z,89.77
2023-01-09T17:58:53.078Z,90.38
2023-01-09T18:01:20.531Z,88.96
2023-01-09T18:03:49.047Z,87.18
2023-01-09T18:08:58.167Z,87.18
2023-01-09T18:11:25.496Z,85.78
2023-01-09T18:13:56.445Z,87.16
2023-01-09T18:16:25.788Z,87.56
2023-01-09T18:18:54.090Z,86.93
2023-01-09T18:21:23.671Z,86.57
2023-01-09T18:23:50.337Z,86.67
2023-01-09T18:26:21.308Z,88.54
2023-01-09T18:29:06.258Z,88.82
2023-01-09T18:31:33.594Z,88.18
2023-01-09T18:36:35.019Z,89.15
2023-01-09T18:39:04.488Z,90.28
2023-01-09T18:41:31.728Z,90.35
2023-01-09T18:44:00.405Z,89.40
2023-01-09T18:46:31.017Z,90.28
2023-01-09T18:49:02.873Z,90.78
2023-01-09T18:54:01.410Z,92.16
2023-01-09T18:59:01.755Z,93.66
2023-01-09T19:01:29.822Z,94.53
2023-01-09T19:03:57.671Z,96.77
2023-01-09T19:06:24.364Z,96.72
2023-01-09T19:08:51.027Z,96.03
2023-01-09T19:11:18.017Z,97.48
2023-01-09T19:16:21.935Z,99.00
2023-01-09T19:18:48.676Z,99.83
2023-01-09T19:21:18.206Z,100.00
2023-01-09T19:23:45.845Z,100.00
2023-01-09T19:26:20.351Z,98.58
2023-01-09T19:28:47.916Z,97.16
2023-01-09T19:31:15.819Z,98.81
2023-01-09T19:33:43.672Z,100.00
2023-01-09T19:36:10.631Z,98.17
2023-01-09T19:38:38.479Z,99.08
2023-01-09T19:41:14.634Z,100.00
2023-01-09T19:43:41.912Z,99.99
2023-01-09T19:46:10.392Z,99.93
2023-01-09T19:48:37.770Z,99.85
2023-01-09T19:51:06.352Z,99.20
2023-01-09T19:53:35.036Z,99.32
2023-01-09T19:56:11.786Z,98.42
2023-01-09T19:58:39.599Z,100.00
2023-01-09T20:01:13.558Z,99.81
2023-01-09T20:03:41.510Z,100.00
2023-01-09T20:06:14.166Z,100.00
2023-01-09T20:08:42.263Z,100.00
2023-01-09T20:11:09.248Z,100.00
2023-01-09T20:13:36.160Z,100.00
2023-01-09T20:16:03.762Z,100.00
2023-01-09T20:18:32.125Z,99.09
2023-01-09T20:20:58.812Z,99.91
2023-01-09T20:23:32.451Z,100.00
2023-01-09T20:26:00.018Z,97.85
2023-01-09T20:28:27.901Z,98.39
2023-01-09T20:30:54.768Z,99.18
2023-01-09T20:33:22.069Z,97.94
2023-01-09T20:35:48.746Z,98.01
2023-01-09T20:38:15.893Z,98.79
2023-01-09T20:40:45.706Z,98.58
2023-01-09T20:43:13.002Z,97.59
2023-01-09T20:45:40.544Z,97.36
2023-01-09T20:48:07.588Z,96.95
2023-01-09T20:50:34.227Z,99.30
2023-01-09T20:53:00.754Z,98.08
2023-01-09T20:55:27.395Z,98.93
2023-01-09T20:57:54.018Z,98.20
2023-01-09T21:00:20.974Z,99.13
2023-01-09T21:02:47.636Z,98.39
2023-01-09T21:05:14.214Z,98.45
2023-01-09T21:07:40.823Z,96.84
2023-01-09T21:10:07.788Z,98.18
2023-01-09T21:12:37.859Z,98.61
2023-01-09T21:15:09.130Z,98.53
2023-01-09T21:17:37.016Z,98.01
2023-01-09T21:20:06.165Z,97.28
2023-01-09T21:25:06.097Z,96.94
2023-01-09T21:27:36.398Z,96.51
2023-01-09T21:30:05.254Z,96.43
2023-01-09T21:32:32.947Z,95.47
2023-01-09T21:35:04.318Z,96.24
2023-01-09T21:37:33.503Z,95.45
2023-01-09T21:42:57.016Z,95.44
2023-01-09T21:45:42.217Z,95.13
2023-01-09T21:48:08.877Z,95.65
2023-01-09T21:50:36.184Z,94.99
2023-01-09T21:53:04.029Z,96.46
2023-01-09T21:55:33.537Z,97.57
2023-01-09T21:58:03.648Z,95.40
2023-01-09T22:00:30.665Z,95.62
2023-01-09T22:02:57.871Z,95.35
2023-01-09T22:05:25.067Z,93.61
2023-01-09T22:07:51.864Z,96.61
2023-01-09T22:13:10.677Z,97.02
2023-01-09T22:15:37.425Z,97.63
2023-01-09T22:20:41.362Z,97.44
2023-01-09T22:23:07.987Z,93.79
2023-01-09T22:25:37.079Z,92.34
2023-01-09T22:28:04.624Z,93.08
2023-01-09T22:30:31.329Z,94.80
2023-01-09T22:32:57.984Z,92.83
2023-01-09T22:35:24.516Z,93.61
2023-01-09T22:37:51.002Z,92.61
2023-01-09T22:40:17.833Z,95.05
2023-01-09T22:42:44.474Z,94.50
2023-01-09T22:45:11.300Z,94.57
2023-01-09T22:50:09.727Z,95.36
2023-01-09T22:52:36.259Z,95.89
2023-01-09T22:55:02.975Z,96.12
2023-01-09T23:00:08.417Z,97.47
2023-01-09T23:02:35.326Z,96.99
2023-01-09T23:05:02.015Z,96.57
2023-01-09T23:07:28.565Z,95.82
2023-01-09T23:09:57.070Z,96.93
2023-01-09T23:12:23.649Z,96.51
2023-01-09T23:14:50.260Z,98.14
2023-01-09T23:17:16.794Z,98.58
2023-01-09T23:19:43.501Z,98.59
2023-01-09T23:22:10.104Z,98.85
2023-01-09T23:24:36.747Z,99.29
2023-01-09T23:27:04.508Z,98.52
2023-01-09T23:29:31.188Z,99.22
2023-01-09T23:31:58.252Z,99.81
2023-01-09T23:34:27.317Z,97.82
2023-01-09T23:36:57.516Z,98.08
2023-01-09T23:39:24.249Z,97.95
2023-01-09T23:42:09.683Z,98.31
2023-01-09T23:44:38.961Z,97.28
2023-01-09T23:47:05.566Z,97.06
2023-01-09T23:49:32.169Z,97.58
2023-01-09T23:52:01.688Z,96.80
2023-01-09T23:54:28.775Z,97.31
2023-01-09T23:56:56.811Z,97.86
2023-01-09T23:59:23.711Z,99.16
